createdAt,value
2017-11-11T00:01:48.823Z,2.70
2017-11-11T00:04:17.120Z,4.17
2017-11-11T00:06:44.617Z,3.20
2017-11-11T00:09:13.111Z,3.03
2017-11-11T00:11:40.614Z,2.50
2017-11-11T00:14:08.156Z,2.00
2017-11-11T00:16:36.423Z,2.50
2017-11-11T00:19:04.723Z,2.00
2017-11-11T00:21:32.232Z,2.30
2017-11-11T00:23:59.765Z,3.40
2017-11-11T00:26:27.434Z,2.33
2017-11-11T00:28:55.735Z,2.30
2017-11-11T00:31:24.266Z,3.37
2017-11-11T00:33:51.775Z,2.73
2017-11-11T00:36:19.299Z,3.70
2017-11-11T00:38:46.887Z,1.90
2017-11-11T00:41:16.275Z,2.83
2017-11-11T00:43:43.847Z,2.57
2017-11-11T00:46:12.154Z,2.03
2017-11-11T00:48:40.430Z,2.30
2017-11-11T00:51:08.326Z,2.27
2017-11-11T00:53:36.392Z,2.73
2017-11-11T00:56:04.063Z,2.37
2017-11-11T00:58:31.583Z,2.27
2017-11-11T01:00:59.475Z,2.20
2017-11-11T01:03:27.050Z,2.90
2017-11-11T01:05:55.820Z,2.70
2017-11-11T01:08:23.686Z,2.13
2017-11-11T01:10:52.198Z,2.70
2017-11-11T01:13:19.702Z,4.30
2017-11-11T01:15:47.226Z,2.23
2017-11-11T01:18:17.198Z,3.67
2017-11-11T01:20:44.731Z,2.80
2017-11-11T01:23:12.414Z,3.40
2017-11-11T01:25:40.279Z,4.30
2017-11-11T01:28:08.147Z,2.90
2017-11-11T01:30:36.947Z,3.07
2017-11-11T01:33:04.474Z,5.13
2017-11-11T01:35:31.990Z,2.60
2017-11-11T01:37:59.483Z,6.13
2017-11-11T01:40:27.132Z,4.20
2017-11-11T01:42:54.795Z,3.47
2017-11-11T01:45:22.794Z,3.17
2017-11-11T01:47:50.555Z,2.97
2017-11-11T01:50:18.525Z,4.33
2017-11-11T01:52:46.165Z,3.97
2017-11-11T01:55:13.947Z,3.73
2017-11-11T01:57:41.914Z,3.10
2017-11-11T02:00:10.496Z,5.50
2017-11-11T02:02:38.568Z,2.50
2017-11-11T02:05:06.636Z,2.73
2017-11-11T02:07:34.502Z,4.10
2017-11-11T02:10:02.367Z,2.17
2017-11-11T02:12:30.232Z,1.90
2017-11-11T02:14:58.021Z,2.60
2017-11-11T02:17:25.963Z,2.70
2017-11-11T02:19:53.546Z,2.97
2017-11-11T02:22:21.052Z,3.50
2017-11-11T02:24:48.575Z,3.07
2017-11-11T02:27:16.076Z,4.43
2017-11-11T02:29:43.603Z,3.40
2017-11-11T02:32:12.812Z,2.90
2017-11-11T02:34:41.083Z,3.20
2017-11-11T02:37:09.375Z,2.57
2017-11-11T02:39:36.890Z,3.67
2017-11-11T02:42:04.399Z,6.03
2017-11-11T02:44:31.928Z,3.00
2017-11-11T02:47:00.199Z,2.63
2017-11-11T02:49:28.491Z,6.00
2017-11-11T02:51:57.620Z,3.70
2017-11-11T02:54:25.147Z,3.90
2017-11-11T02:56:52.676Z,5.30
2017-11-11T02:59:20.952Z,2.33
2017-11-11T03:01:49.224Z,2.40
2017-11-11T03:04:16.752Z,2.60
2017-11-11T03:06:44.259Z,3.23
2017-11-11T03:09:14.508Z,2.10
2017-11-11T03:11:42.010Z,2.40
2017-11-11T03:14:09.539Z,2.23
2017-11-11T03:16:37.034Z,8.43
2017-11-11T03:19:05.323Z,2.80
2017-11-11T03:21:33.594Z,3.50
2017-11-11T03:24:01.891Z,3.00
2017-11-11T03:26:29.395Z,1.93
2017-11-11T03:28:58.879Z,3.17
2017-11-11T03:31:27.330Z,3.10
2017-11-11T03:33:54.859Z,2.57
2017-11-11T03:36:23.127Z,2.27
2017-11-11T03:38:50.652Z,2.50
2017-11-11T03:41:18.159Z,4.07
2017-11-11T03:43:46.443Z,2.37
2017-11-11T03:46:13.947Z,2.73
2017-11-11T03:48:41.475Z,3.43
2017-11-11T03:51:08.975Z,2.60
2017-11-11T03:53:39.251Z,2.90
2017-11-11T03:56:06.750Z,2.07
2017-11-11T03:58:34.275Z,3.07
2017-11-11T04:01:01.775Z,2.37
2017-11-11T04:03:29.299Z,2.43
2017-11-11T04:05:57.830Z,2.60
2017-11-11T04:08:26.098Z,2.63
2017-11-11T04:10:55.328Z,3.30
2017-11-11T04:13:22.847Z,2.73
2017-11-11T04:15:50.357Z,4.20
2017-11-11T04:18:19.863Z,3.10
2017-11-11T04:20:47.358Z,2.23
2017-11-11T04:23:18.351Z,2.03
2017-11-11T04:25:45.852Z,2.40
2017-11-11T04:28:15.087Z,2.60
2017-11-11T04:30:42.615Z,2.57
2017-11-11T04:33:12.565Z,2.73
2017-11-11T04:35:40.099Z,2.37
2017-11-11T04:38:08.381Z,2.67
2017-11-11T04:40:35.887Z,2.70
2017-11-11T04:43:03.412Z,3.80
2017-11-11T04:45:30.912Z,3.63
2017-11-11T04:47:58.437Z,3.83
2017-11-11T04:50:25.934Z,2.73
2017-11-11T04:52:53.451Z,2.60
2017-11-11T04:55:20.980Z,3.17
2017-11-11T04:57:49.247Z,2.50
2017-11-11T05:00:17.543Z,3.80
2017-11-11T05:02:45.047Z,2.00
2017-11-11T05:05:13.510Z,3.00
2017-11-11T05:07:41.035Z,3.50
2017-11-11T05:10:08.540Z,3.93
2017-11-11T05:12:36.063Z,2.97
2017-11-11T05:15:03.567Z,2.47
2017-11-11T05:17:31.075Z,2.53
2017-11-11T05:19:58.607Z,2.80
2017-11-11T05:22:26.883Z,2.27
2017-11-11T05:24:56.103Z,3.40
2017-11-11T05:27:23.599Z,3.70
2017-11-11T05:29:51.124Z,3.17
2017-11-11T05:32:18.632Z,2.67
2017-11-11T05:34:46.155Z,4.17
2017-11-11T05:37:13.651Z,2.97
2017-11-11T05:39:41.915Z,2.30
2017-11-11T05:42:09.446Z,3.20
2017-11-11T05:44:36.950Z,6.03
2017-11-11T05:47:05.243Z,4.47
2017-11-11T05:49:32.755Z,2.33
2017-11-11T05:52:00.259Z,2.53
2017-11-11T05:54:27.783Z,2.23
2017-11-11T05:56:55.740Z,2.60
2017-11-11T05:59:23.261Z,2.63
2017-11-11T06:01:50.779Z,3.60
2017-11-11T06:04:19.067Z,2.37
2017-11-11T06:06:47.328Z,2.43
2017-11-11T06:09:15.598Z,2.60
2017-11-11T06:11:43.894Z,2.33
2017-11-11T06:14:11.394Z,4.37
2017-11-11T06:16:38.920Z,2.30
2017-11-11T06:19:06.414Z,3.83
2017-11-11T06:21:33.911Z,2.67
2017-11-11T06:24:02.199Z,3.20
2017-11-11T06:26:29.704Z,4.00
2017-11-11T06:28:57.231Z,4.10
2017-11-11T06:31:24.726Z,3.20
2017-11-11T06:33:52.255Z,2.60
2017-11-11T06:36:20.707Z,4.17
2017-11-11T06:38:48.219Z,2.37
2017-11-11T06:41:15.753Z,2.70
2017-11-11T06:43:43.251Z,2.40
2017-11-11T06:46:11.543Z,3.93
2017-11-11T06:48:39.047Z,4.70
2017-11-11T06:51:08.529Z,3.03
2017-11-11T06:53:36.038Z,2.40
2017-11-11T06:56:05.048Z,3.37
2017-11-11T06:58:33.346Z,4.77
2017-11-11T07:01:00.851Z,3.37
2017-11-11T07:03:30.344Z,2.40
2017-11-11T07:05:57.850Z,2.50
2017-11-11T07:08:25.395Z,3.77
2017-11-11T07:10:53.707Z,2.70
2017-11-11T07:13:21.235Z,2.90
2017-11-11T07:15:49.522Z,2.60
2017-11-11T07:18:17.034Z,2.47
2017-11-11T07:20:44.539Z,2.87
2017-11-11T07:23:12.071Z,4.87
2017-11-11T07:25:40.351Z,2.90
2017-11-11T07:28:08.620Z,2.60
2017-11-11T07:30:36.917Z,3.73
2017-11-11T07:33:04.437Z,3.77
2017-11-11T07:35:32.745Z,2.93
2017-11-11T07:38:00.319Z,4.10
2017-11-11T07:40:27.823Z,2.87
2017-11-11T07:42:55.343Z,2.20
2017-11-11T07:45:22.849Z,3.20
2017-11-11T07:47:50.370Z,2.43
2017-11-11T07:50:17.871Z,2.13
2017-11-11T07:52:46.159Z,2.43
2017-11-11T07:55:13.671Z,3.37
2017-11-11T07:57:42.174Z,3.23
2017-11-11T08:00:09.676Z,2.73
2017-11-11T08:02:37.200Z,3.13
2017-11-11T08:05:05.504Z,2.27
2017-11-11T08:07:33.041Z,2.30
2017-11-11T08:10:01.312Z,2.10
2017-11-11T08:12:29.587Z,2.00
2017-11-11T08:14:57.874Z,2.23
2017-11-11T08:17:25.406Z,2.40
2017-11-11T08:19:53.699Z,2.37
2017-11-11T08:22:22.012Z,3.67
2017-11-11T08:24:49.539Z,2.27
2017-11-11T08:27:17.034Z,2.30
2017-11-11T08:29:44.558Z,2.80
2017-11-11T08:32:12.055Z,4.23
2017-11-11T08:34:39.556Z,2.23
2017-11-11T08:37:07.858Z,2.27
2017-11-11T08:39:35.355Z,2.67
2017-11-11T08:42:02.904Z,2.50
2017-11-11T08:44:30.420Z,2.73
2017-11-11T08:46:57.949Z,2.60
2017-11-11T08:49:26.220Z,2.83
2017-11-11T08:51:54.676Z,2.80
2017-11-11T08:54:24.169Z,2.33
2017-11-11T08:56:52.632Z,2.40
2017-11-11T08:59:20.195Z,2.37
2017-11-11T09:01:47.691Z,2.93
2017-11-11T09:04:15.237Z,2.50
2017-11-11T09:06:42.738Z,2.60
2017-11-11T09:09:10.250Z,2.10
2017-11-11T09:11:37.783Z,2.57
2017-11-11T09:14:05.287Z,2.27
2017-11-11T09:16:32.811Z,2.60
2017-11-11T09:19:00.319Z,2.57
2017-11-11T09:21:28.604Z,2.20
2017-11-11T09:23:56.108Z,2.93
2017-11-11T09:26:23.640Z,2.53
2017-11-11T09:28:51.139Z,2.53
2017-11-11T09:31:18.668Z,2.10
2017-11-11T09:33:47.126Z,2.50
2017-11-11T09:36:14.659Z,2.63
2017-11-11T09:38:42.931Z,2.53
2017-11-11T09:41:12.147Z,2.97
2017-11-11T09:43:39.689Z,2.70
2017-11-11T09:46:07.955Z,3.00
2017-11-11T09:48:36.243Z,4.97
2017-11-11T09:51:03.784Z,2.20
2017-11-11T09:53:32.084Z,3.00
2017-11-11T09:55:59.603Z,2.13
2017-11-11T09:58:27.119Z,3.17
2017-11-11T10:00:54.647Z,3.90
2017-11-11T10:03:23.870Z,2.47
2017-11-11T10:05:51.400Z,2.43
2017-11-11T10:08:19.679Z,7.00
2017-11-11T10:10:47.198Z,4.93
2017-11-11T10:13:14.706Z,4.87
2017-11-11T10:15:44.210Z,5.13
2017-11-11T10:18:11.735Z,11.40
2017-11-11T10:20:41.852Z,4.60
2017-11-11T10:23:10.163Z,2.10
2017-11-11T10:25:37.744Z,12.20
2017-11-11T10:28:05.250Z,2.00
2017-11-11T10:30:33.574Z,2.57
2017-11-11T10:33:01.095Z,2.00
2017-11-11T10:35:28.646Z,3.33
2017-11-11T10:37:56.916Z,2.03
2017-11-11T10:40:26.560Z,2.93
2017-11-11T10:42:54.107Z,3.60
2017-11-11T10:45:21.640Z,2.27
2017-11-11T10:47:49.974Z,2.60
2017-11-11T10:50:17.595Z,2.70
2017-11-11T10:52:46.054Z,1.90
2017-11-11T10:55:14.576Z,2.50
2017-11-11T10:57:42.132Z,2.20
2017-11-11T11:00:09.632Z,3.03
2017-11-11T11:02:37.189Z,2.93
2017-11-11T11:05:06.663Z,2.43
2017-11-11T11:07:34.172Z,2.37
2017-11-11T11:10:02.467Z,2.50
2017-11-11T11:12:30.947Z,2.10
2017-11-11T11:15:00.436Z,1.70
2017-11-11T11:17:27.942Z,2.73
2017-11-11T11:19:55.439Z,2.83
2017-11-11T11:22:23.746Z,2.10
2017-11-11T11:24:51.309Z,2.23
2017-11-11T11:27:19.279Z,2.13
2017-11-11T11:29:47.247Z,2.20
2017-11-11T11:32:15.112Z,2.50
2017-11-11T11:34:43.079Z,2.40
2017-11-11T11:37:10.637Z,2.20
2017-11-11T11:39:38.147Z,2.30
2017-11-11T11:42:07.607Z,2.57
2017-11-11T11:44:35.118Z,3.20
2017-11-11T11:47:03.426Z,2.60
2017-11-11T11:49:30.936Z,74.20
2017-11-11T11:51:59.383Z,102.40
2017-11-11T11:54:26.928Z,250.03
2017-11-11T11:56:54.452Z,206.60
2017-11-11T11:59:24.691Z,167.47
2017-11-11T12:01:52.198Z,138.17
2017-11-11T12:04:19.742Z,163.30
2017-11-11T12:06:47.284Z,137.93
2017-11-11T12:09:14.804Z,119.70
2017-11-11T12:11:44.336Z,119.17
2017-11-11T12:14:11.867Z,103.47
2017-11-11T12:16:40.166Z,121.63
2017-11-11T12:19:07.676Z,101.33
2017-11-11T12:21:35.203Z,90.43
2017-11-11T12:24:02.715Z,83.33
2017-11-11T12:26:30.243Z,83.23
2017-11-11T12:28:57.750Z,80.13
2017-11-11T12:31:25.293Z,94.27
2017-11-11T12:33:52.811Z,62.53
2017-11-11T12:36:20.347Z,74.33
2017-11-11T12:38:47.850Z,75.73
2017-11-11T12:41:16.156Z,74.73
2017-11-11T12:43:43.674Z,82.27
2017-11-11T12:46:11.988Z,68.90
2017-11-11T12:48:40.459Z,80.37
2017-11-11T12:51:08.967Z,50.73
2017-11-11T12:53:36.478Z,43.47
2017-11-11T12:56:04.777Z,53.13
2017-11-11T12:58:32.284Z,45.07
2017-11-11T13:00:59.821Z,44.07
2017-11-11T13:03:27.337Z,47.07
2017-11-11T13:05:56.856Z,43.20
2017-11-11T13:08:24.369Z,42.53
2017-11-11T13:10:52.671Z,35.70
2017-11-11T13:13:20.200Z,34.23
2017-11-11T13:15:48.503Z,37.10
2017-11-11T13:18:16.015Z,39.10
2017-11-11T13:20:43.546Z,33.47
2017-11-11T13:23:11.070Z,27.50
2017-11-11T13:25:39.363Z,20.43
2017-11-11T13:28:07.819Z,30.43
2017-11-11T13:30:36.116Z,36.03
2017-11-11T13:33:03.619Z,35.23
2017-11-11T13:35:31.151Z,33.97
2017-11-11T13:37:58.654Z,33.70
2017-11-11T13:40:26.955Z,25.40
2017-11-11T13:42:55.459Z,27.40
2017-11-11T13:45:22.992Z,22.60
2017-11-11T13:47:50.513Z,21.67
2017-11-11T13:50:18.041Z,22.53
2017-11-11T13:52:46.491Z,21.27
2017-11-11T13:55:14.018Z,27.10
2017-11-11T13:57:42.318Z,24.53
2017-11-11T14:00:09.843Z,24.77
2017-11-11T14:02:37.347Z,22.60
2017-11-11T14:05:04.886Z,15.33
2017-11-11T14:07:33.359Z,19.50
2017-11-11T14:10:00.895Z,18.77
2017-11-11T14:12:29.174Z,22.47
2017-11-11T14:14:57.472Z,17.80
2017-11-11T14:17:25.742Z,17.93
2017-11-11T14:19:54.047Z,19.03
2017-11-11T14:22:21.558Z,13.77
2017-11-11T14:24:49.847Z,23.73
2017-11-11T14:27:18.163Z,13.40
2017-11-11T14:29:45.690Z,16.13
2017-11-11T14:32:13.200Z,11.10
2017-11-11T14:34:40.728Z,10.57
2017-11-11T14:37:08.251Z,14.80
2017-11-11T14:39:36.612Z,14.27
2017-11-11T14:42:04.883Z,19.73
2017-11-11T14:44:34.114Z,11.83
2017-11-11T14:47:01.625Z,13.47
2017-11-11T14:49:29.160Z,15.73
2017-11-11T14:51:57.607Z,10.97
2017-11-11T14:54:25.136Z,10.80
2017-11-11T14:56:52.635Z,5.63
2017-11-11T14:59:20.184Z,10.40
2017-11-11T15:01:48.631Z,12.80
2017-11-11T15:04:16.182Z,11.03
2017-11-11T15:06:43.696Z,8.03
2017-11-11T15:09:11.264Z,8.80
2017-11-11T15:11:38.789Z,7.10
2017-11-11T15:14:06.319Z,10.63
2017-11-11T15:16:33.821Z,6.17
2017-11-11T15:19:01.344Z,8.03
2017-11-11T15:21:29.627Z,9.30
2017-11-11T15:23:57.920Z,14.53
2017-11-11T15:26:25.456Z,7.50
2017-11-11T15:28:53.773Z,5.17
2017-11-11T15:31:21.298Z,11.50
2017-11-11T15:33:49.292Z,7.97
2017-11-11T15:36:16.798Z,6.80
2017-11-11T15:38:45.088Z,9.33
2017-11-11T15:41:13.364Z,10.10
2017-11-11T15:43:40.898Z,7.50
2017-11-11T15:46:08.408Z,10.53
2017-11-11T15:48:35.956Z,5.80
2017-11-11T15:51:03.481Z,8.30
2017-11-11T15:53:31.774Z,6.17
2017-11-11T15:56:00.064Z,6.00
2017-11-11T15:58:29.536Z,9.20
2017-11-11T16:00:57.798Z,6.13
2017-11-11T16:03:26.251Z,8.03
2017-11-11T16:05:53.755Z,9.50
2017-11-11T16:08:22.061Z,8.53
2017-11-11T16:10:49.570Z,6.03
2017-11-11T16:13:17.288Z,6.90
2017-11-11T16:15:45.064Z,6.80
2017-11-11T16:18:12.567Z,6.17
2017-11-11T16:20:40.859Z,7.40
2017-11-11T16:23:08.363Z,5.00
2017-11-11T16:25:35.892Z,6.90
2017-11-11T16:28:03.394Z,5.43
2017-11-11T16:30:30.922Z,11.00
2017-11-11T16:32:58.434Z,5.70
2017-11-11T16:35:26.718Z,8.50
2017-11-11T16:37:55.918Z,9.70
2017-11-11T16:40:23.443Z,8.00
2017-11-11T16:42:50.949Z,3.93
2017-11-11T16:45:18.455Z,8.30
2017-11-11T16:47:45.982Z,5.70
2017-11-11T16:50:13.506Z,5.70
2017-11-11T16:52:41.032Z,5.93
2017-11-11T16:55:08.577Z,6.63
2017-11-11T16:57:36.107Z,5.07
2017-11-11T17:00:03.631Z,4.73
2017-11-11T17:02:31.149Z,5.30
2017-11-11T17:04:59.454Z,6.87
2017-11-11T17:07:28.665Z,5.73
2017-11-11T17:09:56.186Z,7.73
2017-11-11T17:12:23.717Z,5.03
2017-11-11T17:14:51.237Z,5.80
2017-11-11T17:17:20.761Z,5.57
2017-11-11T17:19:48.509Z,4.10
2017-11-11T17:22:17.415Z,6.93
2017-11-11T17:24:45.197Z,9.87
2017-11-11T17:27:12.974Z,7.83
2017-11-11T17:29:43.776Z,5.90
2017-11-11T17:32:11.533Z,5.30
2017-11-11T17:34:39.554Z,7.13
2017-11-11T17:37:07.842Z,4.53
2017-11-11T17:39:36.143Z,4.40
2017-11-11T17:42:03.646Z,3.87
2017-11-11T17:44:31.173Z,5.43
2017-11-11T17:46:58.707Z,4.20
2017-11-11T17:49:26.213Z,8.50
2017-11-11T17:51:53.760Z,5.07
2017-11-11T17:54:21.300Z,3.37
2017-11-11T17:56:48.802Z,8.70
2017-11-11T17:59:17.108Z,4.33
2017-11-11T18:01:44.615Z,13.13
2017-11-11T18:04:12.144Z,4.30
2017-11-11T18:06:39.667Z,3.80
2017-11-11T18:09:07.973Z,3.53
2017-11-11T18:11:35.496Z,4.77
2017-11-11T18:14:03.809Z,6.97
2017-11-11T18:16:31.319Z,5.07
2017-11-11T18:18:59.596Z,7.60
2017-11-11T18:21:27.887Z,3.87
2017-11-11T18:23:56.160Z,5.23
2017-11-11T18:26:26.414Z,3.50
2017-11-11T18:28:53.947Z,4.70
2017-11-11T18:31:22.223Z,5.17
2017-11-11T18:33:50.521Z,3.50
2017-11-11T18:36:18.069Z,3.60
2017-11-11T18:38:45.655Z,4.30
2017-11-11T18:41:13.186Z,4.00
2017-11-11T18:43:40.695Z,3.23
2017-11-11T18:46:09.176Z,5.57
2017-11-11T18:48:36.715Z,3.90
2017-11-11T18:51:04.215Z,3.63
2017-11-11T18:53:32.516Z,5.80
2017-11-11T18:56:00.981Z,3.80
2017-11-11T18:58:28.877Z,4.07
2017-11-11T19:00:57.661Z,14.53
2017-11-11T19:03:25.729Z,10.30
2017-11-11T19:05:53.697Z,6.77
2017-11-11T19:08:21.726Z,6.10
2017-11-11T19:10:49.797Z,15.33
2017-11-11T19:13:17.806Z,4.97
2017-11-11T19:15:46.309Z,3.50
2017-11-11T19:18:15.014Z,5.20
2017-11-11T19:20:43.732Z,6.50
2017-11-11T19:23:11.567Z,5.50
2017-11-11T19:25:39.856Z,3.80
2017-11-11T19:28:08.131Z,10.60
2017-11-11T19:30:36.424Z,8.20
2017-11-11T19:33:03.975Z,5.27
2017-11-11T19:35:32.235Z,6.87
2017-11-11T19:38:00.540Z,11.87
2017-11-11T19:40:28.055Z,21.47
2017-11-11T19:42:58.339Z,15.27
2017-11-11T19:45:25.858Z,12.50
2017-11-11T19:47:54.155Z,8.57
2017-11-11T19:50:22.619Z,8.17
2017-11-11T19:52:50.893Z,5.43
2017-11-11T19:55:19.200Z,14.87
2017-11-11T19:57:46.723Z,7.70
2017-11-11T20:00:15.228Z,6.00
2017-11-11T20:02:42.752Z,4.30
2017-11-11T20:05:11.020Z,5.90
2017-11-11T20:07:39.664Z,5.27
2017-11-11T20:10:07.185Z,6.90
2017-11-11T20:12:36.694Z,5.97
2017-11-11T20:15:04.214Z,5.30
2017-11-11T20:17:31.720Z,6.57
2017-11-11T20:19:59.259Z,12.13
2017-11-11T20:22:26.768Z,4.87
2017-11-11T20:24:54.298Z,8.27
2017-11-11T20:27:21.822Z,4.70
2017-11-11T20:29:50.086Z,7.13
2017-11-11T20:32:18.382Z,5.50
2017-11-11T20:34:45.883Z,7.20
2017-11-11T20:37:13.413Z,7.87
2017-11-11T20:39:40.914Z,5.93
2017-11-11T20:42:08.468Z,4.60
2017-11-11T20:44:36.738Z,3.90
2017-11-11T20:47:05.699Z,3.97
2017-11-11T20:49:35.191Z,4.23
2017-11-11T20:52:02.696Z,6.10
2017-11-11T20:54:30.279Z,4.20
2017-11-11T20:56:58.798Z,6.33
2017-11-11T20:59:26.352Z,7.60
2017-11-11T21:01:53.939Z,3.10
2017-11-11T21:04:21.471Z,4.50
2017-11-11T21:06:49.020Z,3.90
2017-11-11T21:09:16.528Z,5.53
2017-11-11T21:11:44.059Z,3.67
2017-11-11T21:14:11.551Z,3.20
2017-11-11T21:16:39.053Z,7.50
2017-11-11T21:19:06.579Z,3.93
2017-11-11T21:21:34.851Z,3.70
2017-11-11T21:24:03.139Z,4.00
2017-11-11T21:26:31.603Z,6.77
2017-11-11T21:28:59.890Z,6.80
2017-11-11T21:31:29.112Z,4.17
2017-11-11T21:33:56.648Z,5.87
2017-11-11T21:36:24.150Z,6.00
2017-11-11T21:38:51.676Z,8.10
2017-11-11T21:41:19.179Z,3.70
2017-11-11T21:43:46.712Z,3.40
2017-11-11T21:46:14.223Z,6.07
2017-11-11T21:48:42.494Z,7.93
2017-11-11T21:51:10.783Z,5.07
2017-11-11T21:53:39.601Z,9.23
2017-11-11T21:56:07.404Z,7.57
2017-11-11T21:58:36.045Z,10.00
2017-11-11T22:01:03.920Z,5.27
2017-11-11T22:03:32.321Z,5.00
2017-11-11T22:05:59.851Z,7.00
2017-11-11T22:08:27.405Z,4.73
2017-11-11T22:10:54.963Z,5.37
2017-11-11T22:13:22.726Z,5.97
2017-11-11T22:15:50.226Z,8.13
2017-11-11T22:18:17.755Z,6.50
2017-11-11T22:20:45.259Z,4.90
2017-11-11T22:23:13.550Z,5.77
2017-11-11T22:25:41.056Z,4.00
2017-11-11T22:28:08.566Z,5.97
2017-11-11T22:30:36.107Z,3.10
2017-11-11T22:33:04.391Z,6.17
2017-11-11T22:35:31.899Z,4.63
2017-11-11T22:37:59.430Z,5.33
2017-11-11T22:40:26.927Z,7.03
2017-11-11T22:42:57.194Z,6.17
2017-11-11T22:45:24.686Z,6.43
2017-11-11T22:47:52.183Z,4.60
2017-11-11T22:50:22.430Z,4.27
2017-11-11T22:52:49.934Z,5.63
2017-11-11T22:55:17.460Z,6.30
2017-11-11T22:57:44.991Z,6.57
2017-11-11T23:00:12.498Z,7.07
2017-11-11T23:02:40.027Z,4.37
2017-11-11T23:05:07.531Z,6.60
2017-11-11T23:07:35.054Z,7.57
2017-11-11T23:10:02.551Z,6.83
2017-11-11T23:12:30.088Z,3.30
2017-11-11T23:14:58.542Z,4.40
2017-11-11T23:17:26.044Z,4.57
2017-11-11T23:19:53.575Z,7.27
2017-11-11T23:22:21.076Z,4.90
2017-11-11T23:24:50.295Z,4.50
2017-11-11T23:27:17.814Z,3.90
2017-11-11T23:29:45.320Z,6.07
2017-11-11T23:32:12.851Z,7.63
2017-11-11T23:34:40.366Z,6.73
2017-11-11T23:37:07.899Z,3.90
2017-11-11T23:39:35.407Z,3.80
2017-11-11T23:42:03.701Z,4.50
2017-11-11T23:44:31.968Z,4.90
2017-11-11T23:47:00.259Z,5.20
2017-11-11T23:49:27.950Z,4.30
2017-11-11T23:51:55.880Z,5.43
2017-11-11T23:54:24.897Z,2.97
2017-11-11T23:56:52.864Z,3.97
2017-11-11T23:59:20.700Z,3.47
